Time;durP1;ratioP1;P1;durP2;ratioP2;P2;SDS_P1;SDS_P2;PMS_P1;PMS_P2;Temp;Humidity;BMP_temperature;BMP_pressure;BME280_temperature;BME280_humidity;BME280_pressure;Samples;Min_cycle;Max_cycle;Signal;HPM_P1;HPM_P2
2021/09/14 00:01:29;;;;;;;5.00;3.95;;;10.50;99.90;;;;;;5042412;28;20437;-50
2021/09/14 00:03:54;;;;;;;5.22;3.55;;;10.50;99.90;;;;;;5041689;28;20103;-54
2021/09/14 00:06:20;;;;;;;4.32;3.50;;;10.50;99.90;;;;;;5029489;28;20028;-53
2021/09/14 00:08:45;;;;;;;6.97;3.65;;;10.40;99.90;;;;;;5042918;28;20033;-50
2021/09/14 00:11:11;;;;;;;5.85;3.90;;;10.40;99.90;;;;;;5036777;28;20030;-53
2021/09/14 00:13:37;;;;;;;6.30;3.45;;;10.40;99.90;;;;;;5024291;28;20029;-53
2021/09/14 00:16:03;;;;;;;4.15;3.72;;;10.40;99.90;;;;;;5040518;28;20471;-54
2021/09/14 00:18:28;;;;;;;6.10;3.50;;;10.40;99.90;;;;;;5041336;28;20029;-48
2021/09/14 00:20:54;;;;;;;4.50;3.28;;;10.40;99.90;;;;;;5041528;28;20025;-48
2021/09/14 00:23:19;;;;;;;3.38;3.08;;;10.30;99.90;;;;;;5038219;28;20166;-52
2021/09/14 00:25:45;;;;;;;4.15;3.75;;;10.30;99.90;;;;;;5041843;28;20032;-53
2021/09/14 00:28:11;;;;;;;4.72;3.38;;;10.30;99.90;;;;;;5038968;28;20484;-50
2021/09/14 00:30:36;;;;;;;5.18;3.05;;;10.30;99.90;;;;;;5042445;28;20036;-51
2021/09/14 00:33:02;;;;;;;3.92;2.53;;;10.30;99.90;;;;;;5040466;28;20051;-48
2021/09/14 00:35:27;;;;;;;4.78;2.97;;;10.30;99.90;;;;;;5041324;28;20186;-51
2021/09/14 00:37:53;;;;;;;4.60;3.22;;;10.20;99.90;;;;;;5040815;28;20121;-49
2021/09/14 00:40:19;;;;;;;3.85;2.90;;;10.20;99.90;;;;;;5037719;28;20021;-50
2021/09/14 00:42:44;;;;;;;4.28;2.70;;;10.20;99.90;;;;;;5042181;28;20522;-48
2021/09/14 00:45:10;;;;;;;4.38;3.03;;;10.20;99.90;;;;;;5038578;28;20044;-49
2021/09/14 00:47:36;;;;;;;4.70;2.80;;;10.20;99.90;;;;;;5041771;28;20029;-51
2021/09/14 00:50:05;;;;;;;3.70;2.42;;;10.20;99.90;;;;;;5040029;28;20025;-49
2021/09/14 00:52:33;;;;;;;3.97;2.75;;;10.10;99.90;;;;;;5037588;28;20025;-49
2021/09/14 00:54:59;;;;;;;5.95;2.90;;;10.10;99.90;;;;;;5019882;28;20029;-49
2021/09/14 00:57:24;;;;;;;5.20;2.75;;;10.10;99.90;;;;;;5043157;28;20105;-51
2021/09/14 00:59:50;;;;;;;3.67;2.47;;;10.10;99.90;;;;;;5035155;28;20013;-54
2021/09/14 01:02:16;;;;;;;4.75;2.70;;;10.10;99.90;;;;;;5043001;28;20036;-51
2021/09/14 01:04:41;;;;;;;3.03;2.70;;;10.10;99.90;;;;;;5035667;28;20021;-51
2021/09/14 01:07:07;;;;;;;2.58;1.88;;;10.00;99.90;;;;;;5038456;28;20025;-49
2021/09/14 01:09:36;;;;;;;2.97;2.67;;;10.00;99.90;;;;;;5041480;28;20018;-54
2021/09/14 01:12:03;;;;;;;2.92;2.22;;;10.00;99.90;;;;;;5037986;28;20029;-50
2021/09/14 01:14:31;;;;;;;3.30;2.63;;;10.00;99.90;;;;;;5042195;28;20479;-57
2021/09/14 01:16:57;;;;;;;4.22;2.20;;;10.00;99.90;;;;;;5057194;22;20059;-51
2021/09/14 01:19:22;;;;;;;2.75;2.55;;;10.00;99.90;;;;;;5028868;28;20033;-52
2021/09/14 01:21:48;;;;;;;4.25;2.97;;;10.00;99.90;;;;;;5028197;28;20053;-51
2021/09/14 01:24:13;;;;;;;3.40;2.83;;;10.00;99.90;;;;;;5032325;28;20025;-48
2021/09/14 01:26:39;;;;;;;5.22;2.80;;;9.90;99.90;;;;;;5029119;28;20029;-50
2021/09/14 01:29:10;;;;;;;3.85;3.10;;;9.90;99.90;;;;;;5032059;28;20037;-53
2021/09/14 01:31:36;;;;;;;3.28;2.53;;;9.90;99.90;;;;;;5028357;28;20105;-51
2021/09/14 01:34:02;;;;;;;4.32;2.42;;;9.90;99.90;;;;;;5013116;28;20030;-50
2021/09/14 01:36:28;;;;;;;5.18;3.10;;;9.90;99.90;;;;;;5028333;28;20053;-51
2021/09/14 01:38:54;;;;;;;3.78;2.53;;;9.90;99.90;;;;;;5029031;28;20041;-50
2021/09/14 01:41:20;;;;;;;3.00;2.22;;;9.90;99.90;;;;;;5032339;28;20088;-50
2021/09/14 01:43:46;;;;;;;2.83;2.40;;;9.80;99.90;;;;;;5028804;28;20025;-51
2021/09/14 01:46:12;;;;;;;2.95;2.35;;;9.80;99.90;;;;;;5031054;28;20032;-51
2021/09/14 01:48:38;;;;;;;4.65;2.85;;;9.80;99.90;;;;;;5018402;28;20025;-50
2021/09/14 01:51:04;;;;;;;3.30;2.58;;;9.80;99.90;;;;;;5024015;28;20021;-50
2021/09/14 01:53:29;;;;;;;3.55;2.13;;;9.80;99.90;;;;;;5023445;28;20072;-50
2021/09/14 01:55:59;;;;;;;5.45;2.70;;;9.80;99.90;;;;;;5023698;28;20028;-51
2021/09/14 01:58:25;;;;;;;2.53;2.33;;;9.80;99.90;;;;;;5020829;28;20379;-52
2021/09/14 02:01:12;;;;;;;6.60;2.70;;;9.80;99.90;;;;;;5025680;28;20104;-51
2021/09/14 02:03:44;;;;;;;5.10;2.90;;;9.70;99.90;;;;;;5013013;28;20028;-53
2021/09/14 02:41:33;;;;;;;5.57;3.28;;;9.50;99.90;;;;;;5022848;28;20091;-49
2021/09/14 03:00:25;;;;;;;3.78;2.42;;;9.50;99.90;;;;;;5012504;28;20163;-50
2021/09/14 03:02:50;;;;;;;2.80;2.42;;;9.50;99.90;;;;;;5001931;28;20105;-49
2021/09/14 03:05:16;;;;;;;4.32;2.80;;;9.50;99.90;;;;;;5022176;28;20033;-50
2021/09/14 03:07:41;;;;;;;3.10;2.42;;;9.40;99.90;;;;;;5023025;28;20527;-51
2021/09/14 03:10:07;;;;;;;4.45;2.75;;;9.50;99.90;;;;;;5021042;28;20492;-50
2021/09/14 03:12:33;;;;;;;3.17;2.30;;;9.40;99.90;;;;;;5022027;28;20032;-50
2021/09/14 03:14:59;;;;;;;3.75;2.70;;;9.40;99.90;;;;;;5020148;28;20018;-50
2021/09/14 03:17:24;;;;;;;4.82;2.72;;;9.40;99.90;;;;;;5022596;28;20029;-50
2021/09/14 03:19:50;;;;;;;4.85;2.72;;;9.40;99.90;;;;;;5004454;28;20026;-50
2021/09/14 03:22:15;;;;;;;3.60;2.50;;;9.30;99.90;;;;;;5022343;28;20103;-50
2021/09/14 03:24:41;;;;;;;4.00;2.22;;;9.40;99.90;;;;;;5023802;28;20025;-51
2021/09/14 03:27:07;;;;;;;4.60;2.65;;;9.30;99.90;;;;;;5020908;28;20025;-52
2021/09/14 03:29:32;;;;;;;4.20;2.65;;;9.30;99.90;;;;;;5022788;28;20522;-51
2021/09/14 03:31:58;;;;;;;2.67;2.25;;;9.40;99.90;;;;;;5002528;28;20074;-50
2021/09/14 03:34:23;;;;;;;3.53;2.20;;;9.40;99.90;;;;;;5004632;28;20100;-50
2021/09/14 03:36:49;;;;;;;4.07;2.40;;;9.30;99.90;;;;;;5003795;28;20056;-51
2021/09/14 03:39:15;;;;;;;6.28;2.78;;;9.30;99.90;;;;;;5021726;28;20018;-50
2021/09/14 03:41:40;;;;;;;4.40;2.80;;;9.30;99.90;;;;;;5023366;28;20022;-50
2021/09/14 03:44:06;;;;;;;5.22;3.13;;;9.30;99.90;;;;;;5020396;28;20467;-50
2021/09/14 03:46:31;;;;;;;2.42;2.22;;;9.30;99.90;;;;;;5022169;28;20033;-51
2021/09/14 03:48:57;;;;;;;2.90;2.55;;;9.30;99.90;;;;;;5019868;28;20484;-51
2021/09/14 03:51:23;;;;;;;4.55;2.38;;;9.30;99.90;;;;;;5022388;28;20025;-50
2021/09/14 03:53:48;;;;;;;3.97;2.58;;;9.30;99.90;;;;;;5008306;28;20112;-50
2021/09/14 03:56:14;;;;;;;2.97;2.38;;;9.30;99.90;;;;;;5020992;28;20109;-51
2021/09/14 03:58:39;;;;;;;2.75;2.17;;;9.20;99.90;;;;;;5023579;28;20030;-51
2021/09/14 04:01:05;;;;;;;6.20;2.60;;;9.20;99.90;;;;;;5020191;28;20022;-50
2021/09/14 04:06:08;;;;;;;3.85;2.67;;;9.20;99.90;;;;;;5019390;28;20022;-50
2021/09/14 04:08:52;;;;;;;5.35;2.42;;;9.20;99.90;;;;;;5021805;28;20104;-50
2021/09/14 04:11:21;;;;;;;3.05;2.75;;;9.20;99.90;;;;;;5017839;28;20026;-51
2021/09/14 04:13:52;;;;;;;4.82;2.60;;;9.20;99.90;;;;;;5022577;28;20029;-50
2021/09/14 04:16:18;;;;;;;2.40;2.20;;;9.20;99.90;;;;;;5018432;28;20014;-50
2021/09/14 04:18:44;;;;;;;2.40;2.20;;;9.20;99.90;;;;;;5023310;28;20029;-50
2021/09/14 04:21:10;;;;;;;3.33;2.58;;;9.20;99.90;;;;;;5019928;28;20017;-51
2021/09/14 04:23:36;;;;;;;4.72;2.10;;;9.20;99.90;;;;;;5023443;28;20645;-50
2021/09/14 04:26:02;;;;;;;5.13;2.25;;;9.20;99.90;;;;;;5003161;28;20033;-50
2021/09/14 04:28:28;;;;;;;4.95;2.40;;;9.20;99.90;;;;;;5000457;28;20026;-50
2021/09/14 04:30:53;;;;;;;4.78;2.67;;;9.30;99.90;;;;;;5023855;28;20373;-52
2021/09/14 04:33:19;;;;;;;4.28;2.53;;;9.30;99.90;;;;;;5018342;28;20037;-51
2021/09/14 04:35:44;;;;;;;2.90;2.53;;;9.30;99.90;;;;;;5023342;28;20030;-50
2021/09/14 04:38:10;;;;;;;4.20;3.13;;;9.40;99.90;;;;;;5019494;28;20033;-53
2021/09/14 04:40:35;;;;;;;5.05;2.67;;;9.30;99.90;;;;;;5022843;28;20053;-51
2021/09/14 04:43:02;;;;;;;3.30;2.65;;;9.40;99.90;;;;;;5020737;28;20488;-50
2021/09/14 04:45:28;;;;;;;3.65;3.03;;;9.40;99.90;;;;;;5009601;28;20041;-52
2021/09/14 04:47:53;;;;;;;3.72;2.83;;;9.40;99.90;;;;;;5023726;28;20022;-50
2021/09/14 04:50:19;;;;;;;3.05;2.03;;;9.40;99.90;;;;;;5018415;28;20084;-50
2021/09/14 04:52:44;;;;;;;5.20;3.03;;;9.40;99.90;;;;;;5026623;28;20025;-51
2021/09/14 04:55:10;;;;;;;4.18;2.65;;;9.40;99.90;;;;;;5023264;28;20033;-52
2021/09/14 04:57:36;;;;;;;3.67;2.85;;;9.50;99.90;;;;;;5026890;28;20030;-51
2021/09/14 05:00:01;;;;;;;4.45;2.97;;;9.50;99.90;;;;;;5024673;28;20029;-50
2021/09/14 05:02:27;;;;;;;2.72;2.47;;;9.50;99.90;;;;;;5004168;28;20121;-50
2021/09/14 05:04:52;;;;;;;7.32;3.42;;;9.60;99.90;;;;;;5027207;28;20018;-50
2021/09/14 05:07:18;;;;;;;5.35;4.25;;;9.60;99.90;;;;;;5022026;28;20022;-51
2021/09/14 05:09:43;;;;;;;5.38;3.88;;;9.70;99.90;;;;;;5026877;28;20108;-50
2021/09/14 05:12:09;;;;;;;3.53;3.08;;;9.70;99.90;;;;;;5017002;28;20080;-50
2021/09/14 05:14:34;;;;;;;5.00;3.33;;;9.70;99.90;;;;;;5025362;28;20551;-50
2021/09/14 05:17:01;;;;;;;6.40;3.55;;;9.80;99.90;;;;;;5021844;28;20034;-50
2021/09/14 05:19:31;;;;;;;13.02;3.53;;;9.80;99.90;;;;;;5027701;28;20030;-52
2021/09/14 05:22:00;;;;;;;3.53;2.83;;;9.90;99.90;;;;;;5018867;28;20022;-50
2021/09/14 05:24:28;;;;;;;7.75;3.50;;;9.90;99.90;;;;;;5010149;28;20083;-53
2021/09/14 05:26:53;;;;;;;5.22;3.30;;;10.00;99.90;;;;;;5021293;28;20018;-51
2021/09/14 05:29:19;;;;;;;4.05;3.13;;;10.00;99.90;;;;;;5023630;28;20013;-51
2021/09/14 05:31:45;;;;;;;4.32;3.47;;;10.00;99.90;;;;;;5023792;28;20072;-51
2021/09/14 05:34:12;;;;;;;3.78;2.60;;;10.00;99.90;;;;;;5022024;28;20112;-52
2021/09/14 05:36:37;;;;;;;3.55;3.25;;;10.10;99.90;;;;;;5025389;28;20473;-49
2021/09/14 05:39:03;;;;;;;5.78;3.13;;;10.20;99.90;;;;;;5022133;28;20026;-51
2021/09/14 05:41:29;;;;;;;3.55;2.58;;;10.20;99.90;;;;;;5027492;28;20030;-52
2021/09/14 05:43:54;;;;;;;5.18;2.40;;;10.30;99.90;;;;;;5020856;28;20439;-50
2021/09/14 05:46:20;;;;;;;6.40;3.17;;;10.30;99.90;;;;;;5024270;28;20160;-50
2021/09/14 05:48:45;;;;;;;7.65;2.30;;;10.30;99.90;;;;;;5023416;28;20384;-50
2021/09/14 05:51:11;;;;;;;5.63;2.65;;;10.40;99.90;;;;;;5023559;28;20480;-51
2021/09/14 05:53:36;;;;;;;2.78;2.45;;;10.50;99.90;;;;;;5007776;28;20505;-51
2021/09/14 05:56:02;;;;;;;3.80;3.08;;;10.50;99.90;;;;;;5021419;28;20072;-50
2021/09/14 05:58:30;;;;;;;5.63;2.63;;;10.60;99.90;;;;;;5027494;28;20033;-50
2021/09/14 06:00:55;;;;;;;3.30;2.70;;;10.60;99.90;;;;;;5020756;28;20010;-51
2021/09/14 06:03:21;;;;;;;3.90;2.92;;;10.70;99.90;;;;;;5015716;28;20087;-50
2021/09/14 06:05:47;;;;;;;4.78;2.72;;;10.80;99.90;;;;;;5022982;28;20041;-50
2021/09/14 06:08:12;;;;;;;3.85;2.53;;;10.90;99.90;;;;;;5021677;28;20022;-50
2021/09/14 06:10:38;;;;;;;4.65;3.25;;;11.00;99.90;;;;;;5025131;28;20041;-50
2021/09/14 06:13:03;;;;;;;6.78;2.80;;;11.00;99.90;;;;;;5019125;28;20021;-50
2021/09/14 06:15:29;;;;;;;3.83;2.85;;;11.10;99.90;;;;;;5023769;28;20021;-50
2021/09/14 06:17:55;;;;;;;4.47;2.45;;;11.20;99.90;;;;;;5022271;28;20029;-51
2021/09/14 06:20:20;;;;;;;6.85;2.42;;;11.30;99.90;;;;;;5024241;28;20101;-51
2021/09/14 06:22:46;;;;;;;6.38;2.85;;;11.30;99.90;;;;;;5024293;28;20033;-52
2021/09/14 06:25:11;;;;;;;4.45;2.35;;;11.40;99.90;;;;;;5022637;28;20054;-51
2021/09/14 06:27:37;;;;;;;6.90;3.10;;;11.40;99.90;;;;;;5006027;28;20026;-51
2021/09/14 06:30:03;;;;;;;13.93;3.35;;;11.50;99.90;;;;;;5021090;28;20032;-51
2021/09/14 06:32:29;;;;;;;3.85;2.85;;;11.60;99.90;;;;;;5023576;28;20025;-50
2021/09/14 06:34:54;;;;;;;6.07;2.53;;;11.70;99.90;;;;;;5021971;28;20027;-51
2021/09/14 06:37:20;;;;;;;9.75;3.28;;;11.70;99.90;;;;;;5023515;28;20391;-51
2021/09/14 06:39:45;;;;;;;4.88;2.40;;;11.80;99.90;;;;;;5025427;28;20030;-50
2021/09/14 06:42:11;;;;;;;12.50;3.33;;;11.90;99.90;;;;;;5022839;28;20449;-50
2021/09/14 06:44:37;;;;;;;13.27;3.97;;;11.90;99.90;;;;;;5020525;28;20562;-50
2021/09/14 06:47:02;;;;;;;8.77;3.65;;;12.00;99.90;;;;;;5018548;28;20022;-51
2021/09/14 06:49:29;;;;;;;7.32;2.75;;;12.10;99.90;;;;;;5023772;28;20128;-51
2021/09/14 06:51:56;;;;;;;5.13;2.28;;;12.20;99.90;;;;;;5022532;28;20053;-50
2021/09/14 06:54:22;;;;;;;3.88;2.47;;;12.30;99.90;;;;;;5011574;28;20112;-50
2021/09/14 06:56:47;;;;;;;6.13;2.65;;;12.40;99.90;;;;;;5023147;28;20098;-50
2021/09/14 06:59:13;;;;;;;4.70;1.90;;;12.40;99.90;;;;;;5022614;28;20041;-51
2021/09/14 07:01:38;;;;;;;4.93;2.08;;;12.50;99.90;;;;;;5023280;28;20384;-50
2021/09/14 07:04:04;;;;;;;2.67;1.50;;;12.50;99.90;;;;;;5020704;28;20018;-50
2021/09/14 07:06:30;;;;;;;9.23;2.50;;;12.60;99.90;;;;;;5005105;28;20029;-53
2021/09/14 07:08:55;;;;;;;12.50;3.63;;;12.70;99.90;;;;;;5021589;28;20109;-51
2021/09/14 07:11:21;;;;;;;4.25;2.70;;;12.70;99.90;;;;;;5007778;28;20428;-51
2021/09/14 07:13:46;;;;;;;6.22;3.00;;;12.80;99.90;;;;;;5024152;28;20525;-50
2021/09/14 07:16:13;;;;;;;7.15;2.35;;;12.90;99.90;;;;;;5019663;28;20072;-50
2021/09/14 07:18:40;;;;;;;3.08;2.25;;;13.00;99.90;;;;;;5054870;22;20053;-51
2021/09/14 07:21:06;;;;;;;14.93;3.67;;;13.00;99.90;;;;;;5041547;28;20520;-53
2021/09/14 07:23:32;;;;;;;10.10;2.92;;;13.10;99.90;;;;;;5043452;28;20033;-54
2021/09/14 07:25:58;;;;;;;3.97;2.03;;;13.20;99.90;;;;;;5041064;28;20380;-50
2021/09/14 07:28:23;;;;;;;4.75;2.15;;;13.20;99.90;;;;;;5021018;28;20385;-49
2021/09/14 07:30:49;;;;;;;4.75;1.80;;;13.30;99.90;;;;;;5044035;28;20104;-50
2021/09/14 07:33:16;;;;;;;6.28;2.15;;;13.50;99.90;;;;;;5039614;28;20025;-51
2021/09/14 07:35:42;;;;;;;3.80;2.58;;;13.70;99.90;;;;;;5043451;28;20502;-49
2021/09/14 07:38:08;;;;;;;4.10;2.25;;;13.80;99.90;;;;;;5022829;28;20029;-48
2021/09/14 07:40:34;;;;;;;6.68;2.65;;;14.00;99.90;;;;;;5025281;28;20021;-53
2021/09/14 07:42:59;;;;;;;4.28;2.63;;;14.10;99.90;;;;;;5041892;28;20016;-49
2021/09/14 07:45:25;;;;;;;8.13;3.60;;;14.20;99.90;;;;;;5038435;28;20049;-48
2021/09/14 07:47:51;;;;;;;9.93;3.53;;;14.40;99.90;;;;;;5044219;28;20033;-53
2021/09/14 07:50:16;;;;;;;4.05;2.63;;;14.50;99.90;;;;;;5039433;28;20029;-48
2021/09/14 07:52:42;;;;;;;12.40;2.85;;;14.70;99.90;;;;;;5043718;28;20647;-50
2021/09/14 07:55:08;;;;;;;4.68;2.22;;;15.00;99.90;;;;;;5040273;28;20443;-49
2021/09/14 07:57:34;;;;;;;6.03;2.15;;;15.20;99.90;;;;;;5043032;28;20032;-51
2021/09/14 08:00:00;;;;;;;3.53;2.22;;;15.40;99.90;;;;;;5041315;28;20104;-50
2021/09/14 08:02:25;;;;;;;4.28;2.22;;;15.60;99.90;;;;;;5038384;28;20026;-49
2021/09/14 08:04:51;;;;;;;3.35;2.08;;;15.90;99.90;;;;;;5043553;28;20104;-48
2021/09/14 08:07:17;;;;;;;5.28;2.38;;;16.10;99.90;;;;;;5038622;28;20111;-49
2021/09/14 08:09:43;;;;;;;5.40;2.40;;;16.20;99.90;;;;;;5043281;28;20409;-54
2021/09/14 08:12:09;;;;;;;3.25;2.30;;;16.40;99.90;;;;;;5033564;28;20021;-48
2021/09/14 08:14:35;;;;;;;4.07;2.25;;;16.60;99.90;;;;;;5023927;28;20159;-50
2021/09/14 08:17:01;;;;;;;5.18;2.72;;;16.80;99.90;;;;;;5019839;28;20018;-51
2021/09/14 08:19:26;;;;;;;4.00;1.90;;;17.00;99.90;;;;;;5031197;28;20083;-54
2021/09/14 08:21:53;;;;;;;4.45;2.20;;;17.30;99.90;;;;;;5039956;28;20108;-54
2021/09/14 08:24:19;;;;;;;2.92;2.08;;;17.50;99.90;;;;;;5040934;28;20040;-51
2021/09/14 08:26:46;;;;;;;3.83;2.10;;;17.70;99.90;;;;;;5025803;28;20502;-52
2021/09/14 08:29:12;;;;;;;6.18;2.13;;;17.90;99.90;;;;;;5041359;28;20241;-54
2021/09/14 08:31:38;;;;;;;4.93;2.38;;;18.10;99.90;;;;;;5041439;28;20111;-48
2021/09/14 08:34:04;;;;;;;4.30;1.90;;;18.20;99.90;;;;;;5040012;28;20032;-53
2021/09/14 08:36:29;;;;;;;3.20;1.60;;;18.30;99.90;;;;;;5040765;28;20419;-54
2021/09/14 08:38:55;;;;;;;3.85;1.40;;;18.40;99.90;;;;;;5041255;28;20021;-49
2021/09/14 08:41:21;;;;;;;2.90;1.77;;;18.50;99.90;;;;;;5040446;28;20021;-51
2021/09/14 08:43:51;;;;;;;4.20;1.88;;;18.70;99.90;;;;;;5041459;28;20041;-55
2021/09/14 08:46:19;;;;;;;3.35;1.95;;;18.80;99.90;;;;;;5038422;28;20430;-51
2021/09/14 08:48:45;;;;;;;4.45;1.80;;;18.90;99.90;;;;;;5042254;28;20040;-53
2021/09/14 08:51:11;;;;;;;3.35;2.05;;;19.10;99.90;;;;;;5039078;28;20467;-56
2021/09/14 08:53:37;;;;;;;4.78;2.20;;;19.20;99.90;;;;;;5042542;28;20037;-55
2021/09/14 08:56:05;;;;;;;3.67;1.80;;;19.30;99.90;;;;;;5039814;28;20029;-52
2021/09/14 08:58:31;;;;;;;5.32;1.70;;;19.30;99.90;;;;;;5042355;28;20017;-52
2021/09/14 09:00:57;;;;;;;4.80;2.10;;;19.30;99.90;;;;;;5047157;28;20483;-53
2021/09/14 09:03:23;;;;;;;4.28;2.10;;;19.20;99.90;;;;;;5037643;28;20113;-54
2021/09/14 09:05:49;;;;;;;4.97;1.42;;;19.20;99.90;;;;;;5042910;28;20025;-55
2021/09/14 09:08:20;;;;;;;3.40;1.75;;;19.30;99.90;;;;;;5038024;28;20029;-52
2021/09/14 09:10:59;;;;;;;5.95;2.40;;;19.50;99.90;;;;;;5043780;28;20032;-51
2021/09/14 09:13:27;;;;;;;2.17;1.98;;;19.40;99.90;;;;;;5032997;28;20026;-53
2021/09/14 09:15:52;;;;;;;3.85;1.90;;;19.40;99.90;;;;;;5045450;28;20544;-53
2021/09/14 09:18:18;;;;;;;2.78;1.55;;;19.50;99.90;;;;;;5020018;28;20108;-56
2021/09/14 09:20:44;;;;;;;4.82;1.83;;;19.50;99.90;;;;;;5037727;28;20071;-57
2021/09/14 09:23:12;;;;;;;2.92;1.52;;;19.50;99.90;;;;;;5044143;28;20065;-52
2021/09/14 09:25:39;;;;;;;2.33;1.50;;;19.50;99.90;;;;;;5019280;28;20018;-54
2021/09/14 09:28:11;;;;;;;3.85;1.45;;;19.50;99.90;;;;;;5038602;28;20033;-51
2021/09/14 09:30:41;;;;;;;2.38;1.75;;;19.50;99.90;;;;;;5041254;28;20101;-55
2021/09/14 09:33:08;;;;;;;3.97;1.80;;;19.50;99.90;;;;;;5038642;28;20483;-51
2021/09/14 09:35:39;;;;;;;4.03;1.50;;;19.60;99.90;;;;;;5041881;28;20128;-52
2021/09/14 09:38:06;;;;;;;3.45;1.55;;;19.60;99.90;;;;;;5038229;28;20017;-53
2021/09/14 09:40:41;;;;;;;3.28;1.95;;;19.50;99.90;;;;;;5047315;28;20026;-53
2021/09/14 09:43:08;;;;;;;3.35;2.20;;;19.50;99.90;;;;;;5040380;28;20045;-54
2021/09/14 09:45:44;;;;;;;5.22;1.90;;;19.50;99.90;;;;;;5044024;28;20029;-54
2021/09/14 09:48:11;;;;;;;5.40;1.50;;;19.50;99.90;;;;;;5041528;28;20033;-49
2021/09/14 09:50:41;;;;;;;3.47;1.70;;;19.50;99.90;;;;;;5026377;28;20021;-51
2021/09/14 09:53:08;;;;;;;2.38;1.95;;;19.50;99.90;;;;;;5042672;28;20033;-52
2021/09/14 09:55:34;;;;;;;4.50;1.63;;;19.50;99.90;;;;;;5043971;28;20096;-49
2021/09/14 09:58:04;;;;;;;5.57;1.40;;;19.50;99.90;;;;;;5043325;28;20075;-53
2021/09/14 10:00:37;;;;;;;2.17;1.75;;;19.70;99.90;;;;;;5044232;28;20028;-52
2021/09/14 10:03:08;;;;;;;3.70;2.13;;;19.70;99.90;;;;;;5041814;28;20021;-51
2021/09/14 10:05:35;;;;;;;2.40;1.70;;;19.80;99.90;;;;;;5043679;28;20364;-53
2021/09/14 10:08:23;;;;;;;1.98;1.40;;;19.80;99.90;;;;;;5042368;28;20028;-50
2021/09/14 10:10:57;;;;;;;3.60;1.80;;;19.80;99.90;;;;;;5044003;28;20028;-53
2021/09/14 10:13:34;;;;;;;2.92;1.63;;;19.80;99.90;;;;;;5041999;28;20104;-51
2021/09/14 10:16:00;;;;;;;3.83;1.90;;;19.70;99.90;;;;;;5024216;28;20021;-52
2021/09/14 10:18:28;;;;;;;2.08;1.88;;;19.70;99.90;;;;;;5040254;28;20116;-53
2021/09/14 10:20:54;;;;;;;3.65;2.25;;;19.60;99.90;;;;;;5046219;28;20104;-53
2021/09/14 10:23:29;;;;;;;2.85;1.98;;;19.60;99.90;;;;;;5040220;28;20108;-52
2021/09/14 10:26:06;;;;;;;2.55;2.10;;;19.70;99.90;;;;;;5023346;28;20022;-52
2021/09/14 10:28:45;;;;;;;2.90;2.10;;;19.70;99.90;;;;;;5030327;28;20040;-53
2021/09/14 10:31:21;;;;;;;2.40;1.63;;;19.50;99.90;;;;;;5040983;28;20117;-50
2021/09/14 10:33:47;;;;;;;2.97;2.30;;;19.50;99.90;;;;;;5043113;28;20029;-50
2021/09/14 10:36:13;;;;;;;2.33;1.83;;;19.40;99.90;;;;;;5042174;28;20546;-53
2021/09/14 10:38:49;;;;;;;3.25;2.15;;;19.40;99.90;;;;;;5025488;28;20017;-52
2021/09/14 10:41:16;;;;;;;1.58;1.48;;;19.50;99.90;;;;;;5042617;28;20037;-56
2021/09/14 10:43:52;;;;;;;3.72;2.05;;;19.50;99.90;;;;;;5043355;28;20033;-53
2021/09/14 10:46:22;;;;;;;2.95;2.28;;;19.50;99.90;;;;;;5023140;28;20028;-56
2021/09/14 10:48:52;;;;;;;2.33;2.03;;;19.60;99.90;;;;;;5025572;28;20060;-53
2021/09/14 10:51:18;;;;;;;2.78;1.73;;;19.60;99.90;;;;;;5041620;28;20017;-48
2021/09/14 10:53:54;;;;;;;4.63;2.28;;;19.60;99.90;;;;;;5043130;28;20025;-51
2021/09/14 10:56:20;;;;;;;2.53;1.88;;;19.70;99.90;;;;;;5041920;28;20013;-48
2021/09/14 10:58:46;;;;;;;1.98;1.80;;;19.70;99.90;;;;;;5042877;28;20024;-53
2021/09/14 11:01:13;;;;;;;3.10;2.15;;;19.80;99.90;;;;;;5040856;28;20029;-52
2021/09/14 11:03:40;;;;;;;3.45;2.15;;;19.80;99.90;;;;;;5043106;28;20503;-52
2021/09/14 11:06:08;;;;;;;3.78;1.80;;;19.80;99.90;;;;;;5041184;28;20562;-52
2021/09/14 11:08:34;;;;;;;2.20;2.00;;;19.70;99.90;;;;;;5036202;28;20049;-50
2021/09/14 11:11:01;;;;;;;3.15;2.00;;;19.80;99.90;;;;;;5042168;28;20387;-51
2021/09/14 11:13:29;;;;;;;2.08;1.88;;;19.80;99.90;;;;;;5042947;28;20139;-54
2021/09/14 11:16:04;;;;;;;2.28;1.90;;;19.90;99.90;;;;;;5042204;28;20044;-54
2021/09/14 11:18:32;;;;;;;6.05;2.33;;;19.90;99.90;;;;;;5019630;28;20033;-50
2021/09/14 11:21:05;;;;;;;1.98;1.88;;;19.90;99.90;;;;;;5045495;28;20387;-53
2021/09/14 11:23:31;;;;;;;2.00;1.80;;;19.80;99.90;;;;;;5038968;28;20526;-52
2021/09/14 11:25:57;;;;;;;4.75;2.05;;;19.80;99.90;;;;;;5022252;28;20045;-52
2021/09/14 11:28:23;;;;;;;4.75;2.10;;;19.80;99.90;;;;;;5042828;28;20056;-50
2021/09/14 11:30:59;;;;;;;3.47;2.15;;;19.80;99.90;;;;;;5040865;28;20029;-50
2021/09/14 11:33:26;;;;;;;2.40;2.00;;;19.80;99.90;;;;;;5027845;28;20630;-49
2021/09/14 11:35:54;;;;;;;3.95;2.47;;;19.70;99.90;;;;;;5041071;28;20496;-51
2021/09/14 11:38:19;;;;;;;2.20;1.90;;;19.80;99.90;;;;;;5041743;28;20531;-54
2021/09/14 11:40:50;;;;;;;3.60;2.38;;;19.80;99.90;;;;;;5042625;28;20032;-52
2021/09/14 11:43:27;;;;;;;5.15;2.33;;;19.80;99.90;;;;;;5041033;28;20021;-51
2021/09/14 11:45:53;;;;;;;5.65;2.70;;;19.90;99.90;;;;;;5040208;28;20108;-50
2021/09/14 11:48:24;;;;;;;3.08;2.47;;;19.90;99.90;;;;;;5041532;28;20017;-49
2021/09/14 11:51:02;;;;;;;3.30;2.30;;;20.00;99.90;;;;;;5041397;28;20036;-51
2021/09/14 11:53:29;;;;;;;4.65;2.13;;;20.00;99.90;;;;;;5031617;28;20025;-48
2021/09/14 11:55:54;;;;;;;3.03;2.30;;;20.20;99.90;;;;;;5040691;28;20506;-51
2021/09/14 11:58:34;;;;;;;2.72;2.20;;;20.20;99.90;;;;;;5041196;28;20029;-52
2021/09/14 12:01:11;;;;;;;2.97;2.70;;;20.20;99.90;;;;;;5040092;28;20087;-51
2021/09/14 12:03:38;;;;;;;2.38;2.15;;;20.20;99.90;;;;;;5041464;28;20063;-52
2021/09/14 12:06:05;;;;;;;3.05;2.30;;;20.30;99.90;;;;;;5040001;28;20036;-49
2021/09/14 12:08:33;;;;;;;2.75;2.42;;;20.30;99.90;;;;;;5041379;28;20028;-48
2021/09/14 12:10:59;;;;;;;3.88;2.40;;;20.50;99.90;;;;;;5040976;28;20392;-49
2021/09/14 12:13:25;;;;;;;2.88;2.17;;;20.50;99.90;;;;;;5041086;28;20055;-50
2021/09/14 12:15:58;;;;;;;2.85;2.05;;;20.50;99.90;;;;;;5041117;28;20014;-52
2021/09/14 12:18:24;;;;;;;4.80;3.22;;;20.70;99.90;;;;;;5035328;28;20108;-49
2021/09/14 12:20:50;;;;;;;2.97;2.47;;;20.70;99.90;;;;;;5025934;28;20063;-48
2021/09/14 12:23:16;;;;;;;3.10;2.25;;;20.70;99.90;;;;;;5038330;28;21376;-51
2021/09/14 12:25:42;;;;;;;3.60;2.35;;;20.60;99.90;;;;;;5038791;28;20094;-50
2021/09/14 12:28:07;;;;;;;2.35;2.00;;;20.60;99.90;;;;;;5021488;28;20629;-55
2021/09/14 12:30:34;;;;;;;2.60;2.38;;;20.60;99.90;;;;;;5041798;28;20040;-47
2021/09/14 12:32:59;;;;;;;2.42;2.20;;;20.60;99.90;;;;;;5037977;28;20419;-50
2021/09/14 12:35:25;;;;;;;3.97;2.30;;;20.60;99.90;;;;;;5043939;28;20032;-48
2021/09/14 12:37:51;;;;;;;2.95;2.42;;;20.70;99.90;;;;;;5037638;28;20026;-53
2021/09/14 12:40:17;;;;;;;4.82;2.35;;;20.70;99.90;;;;;;5045305;28;20033;-52
2021/09/14 12:42:42;;;;;;;4.05;2.30;;;20.80;99.90;;;;;;5037366;28;20017;-52
2021/09/14 12:45:08;;;;;;;3.22;2.75;;;20.80;99.90;;;;;;5038909;28;20356;-52
2021/09/14 12:47:34;;;;;;;3.22;2.30;;;20.80;99.90;;;;;;5041817;28;20109;-55
2021/09/14 12:49:59;;;;;;;3.47;2.95;;;20.90;99.90;;;;;;5020392;28;20105;-50
2021/09/14 12:52:27;;;;;;;3.80;2.90;;;21.00;99.90;;;;;;5044086;28;20021;-53
2021/09/14 12:54:53;;;;;;;3.35;2.70;;;21.00;99.90;;;;;;5019529;28;20029;-52
2021/09/14 12:57:18;;;;;;;6.80;3.05;;;21.10;99.90;;;;;;5027200;28;20026;-51
2021/09/14 12:59:44;;;;;;;3.17;2.47;;;21.10;99.90;;;;;;5019471;28;20028;-50
2021/09/14 13:02:09;;;;;;;7.15;3.00;;;21.20;99.90;;;;;;5039081;28;20033;-52
2021/09/14 13:04:35;;;;;;;2.60;2.40;;;21.20;99.90;;;;;;5040948;28;20033;-49
2021/09/14 13:07:01;;;;;;;3.92;2.47;;;21.20;99.90;;;;;;5037959;28;20048;-55
2021/09/14 13:09:27;;;;;;;4.88;2.70;;;21.30;99.90;;;;;;5042895;28;20040;-50
2021/09/14 13:11:53;;;;;;;4.50;2.13;;;21.30;99.90;;;;;;5037167;28;20026;-53
2021/09/14 13:17:02;;;;;;;5.25;2.72;;;21.30;99.90;;;;;;5039398;28;20070;-53
2021/09/14 13:19:28;;;;;;;5.72;3.00;;;21.30;99.90;;;;;;5045274;28;20032;-49
2021/09/14 13:21:53;;;;;;;3.70;2.45;;;21.20;99.90;;;;;;5043101;28;20387;-55
2021/09/14 13:24:19;;;;;;;4.10;2.53;;;21.30;99.90;;;;;;5043952;28;20122;-52
2021/09/14 13:26:44;;;;;;;2.70;2.40;;;21.30;99.90;;;;;;5045829;28;20170;-50
2021/09/14 13:29:10;;;;;;;4.15;2.70;;;21.30;99.90;;;;;;5041924;28;20502;-49
2021/09/14 13:31:36;;;;;;;4.03;2.75;;;21.20;99.90;;;;;;5044654;28;20028;-50
2021/09/14 13:34:01;;;;;;;3.05;2.70;;;21.10;99.90;;;;;;5042663;28;20037;-53
2021/09/14 13:36:27;;;;;;;2.95;2.67;;;21.10;99.90;;;;;;5043972;28;20024;-51
2021/09/14 13:38:52;;;;;;;3.30;3.00;;;21.10;99.90;;;;;;5043718;28;20108;-52
2021/09/14 13:41:20;;;;;;;2.58;2.28;;;21.10;99.90;;;;;;5043738;28;20017;-54
2021/09/14 13:46:15;;;;;;;3.88;2.53;;;21.10;99.90;;;;;;5041665;28;20109;-49